Time;durP1;ratioP1;P1;durP2;ratioP2;P2;SDS_P1;SDS_P2;PMS_P1;PMS_P2;Temp;Humidity;BMP_temperature;BMP_pressure;BME280_temperature;BME280_humidity;BME280_pressure;Samples;Min_cycle;Max_cycle;Signal;HPM_P1;HPM_P2
2023/07/20 00:00:13;;;;;;;9.77;8.33;;;16.80;99.90;;;;;;5098936;28;20464;-58
2023/07/20 00:02:41;;;;;;;10.00;8.00;;;16.80;99.90;;;;;;5099263;28;20490;-59
2023/07/20 00:05:08;;;;;;;10.73;7.90;;;16.80;99.90;;;;;;5099161;28;20464;-59
2023/07/20 00:07:35;;;;;;;12.67;9.00;;;16.70;1.00;;;;;;5098752;28;20460;-59
2023/07/20 00:10:02;;;;;;;10.53;8.57;;;16.70;1.00;;;;;;5098657;28;20865;-59
2023/07/20 00:12:31;;;;;;;10.13;8.77;;;16.70;1.00;;;;;;5098113;28;20460;-58
2023/07/20 00:14:58;;;;;;;11.10;8.70;;;16.60;1.00;;;;;;5098723;28;20555;-59
2023/07/20 00:17:25;;;;;;;9.90;8.90;;;16.60;99.90;;;;;;5098011;28;20580;-58
2023/07/20 00:19:52;;;;;;;8.90;8.10;;;16.50;99.90;;;;;;5098606;28;20558;-58
2023/07/20 00:22:19;;;;;;;11.87;9.13;;;16.40;99.90;;;;;;5098332;28;20464;-59
2023/07/20 00:24:47;;;;;;;15.17;9.17;;;16.40;1.00;;;;;;5098649;28;20543;-58
2023/07/20 00:27:14;;;;;;;10.93;9.07;;;16.30;1.00;;;;;;5098678;28;20484;-59
2023/07/20 00:29:42;;;;;;;10.73;8.70;;;16.30;99.90;;;;;;5098235;28;20842;-59
2023/07/20 00:32:10;;;;;;;11.20;9.10;;;16.30;99.90;;;;;;5098293;28;20826;-58
2023/07/20 00:34:37;;;;;;;11.23;10.03;;;16.30;1.00;;;;;;5098129;28;20494;-58
2023/07/20 00:37:04;;;;;;;12.13;8.70;;;16.30;99.90;;;;;;5098160;28;20502;-59
2023/07/20 00:39:32;;;;;;;10.93;9.87;;;16.20;99.90;;;;;;5097712;28;20460;-58
2023/07/20 00:41:59;;;;;;;11.80;10.57;;;16.20;1.00;;;;;;5097988;28;20568;-58
2023/07/20 00:44:26;;;;;;;14.33;10.57;;;16.20;99.90;;;;;;5098150;28;20752;-59
2023/07/20 00:46:55;;;;;;;11.20;10.10;;;16.20;99.90;;;;;;5098435;28;20459;-59
2023/07/20 00:49:23;;;;;;;14.13;10.73;;;16.30;99.90;;;;;;5098189;28;20456;-59
2023/07/20 00:51:51;;;;;;;13.30;12.00;;;16.20;99.90;;;;;;5097945;28;20467;-59
2023/07/20 00:54:19;;;;;;;11.97;10.70;;;16.10;99.90;;;;;;5097767;28;20562;-59
2023/07/20 00:56:47;;;;;;;12.00;10.83;;;16.10;99.90;;;;;;5097882;28;20586;-59
2023/07/20 00:59:15;;;;;;;12.90;11.60;;;16.10;99.90;;;;;;5098002;28;20761;-59
2023/07/20 01:01:42;;;;;;;12.40;11.20;;;16.00;99.90;;;;;;5096796;28;20464;-59
2023/07/20 01:04:11;;;;;;;12.83;11.60;;;16.00;42.80;;;;;;5097710;28;20491;-59
2023/07/20 01:06:47;;;;;;;13.07;11.47;;;15.90;99.90;;;;;;5098073;28;20456;-59
2023/07/20 01:09:18;;;;;;;15.60;12.63;;;15.90;1.00;;;;;;5098122;28;20723;-59
2023/07/20 01:11:55;;;;;;;12.50;11.30;;;15.80;1.00;;;;;;5097523;28;20821;-59
2023/07/20 01:14:25;;;;;;;16.43;10.73;;;15.80;1.00;;;;;;5097726;28;20460;-60
2023/07/20 01:16:53;;;;;;;14.60;11.83;;;15.70;5.50;;;;;;5097532;28;20584;-60
2023/07/20 01:19:22;;;;;;;12.67;11.33;;;15.70;99.90;;;;;;5097237;28;20457;-59
2023/07/20 01:21:56;;;;;;;12.80;11.60;;;15.70;99.90;;;;;;5097373;28;20465;-60
2023/07/20 01:24:57;;;;;;;13.80;12.40;;;15.60;99.90;;;;;;5096740;28;20468;-60
2023/07/20 01:27:47;;;;;;;12.47;11.27;;;15.60;1.00;;;;;;5097236;28;20437;-60
2023/07/20 01:30:36;;;;;;;12.43;10.77;;;15.60;99.90;;;;;;5097441;28;20460;-60
2023/07/20 01:33:06;;;;;;;13.13;11.53;;;15.60;1.00;;;;;;5097378;28;20456;-60
2023/07/20 01:35:35;;;;;;;16.90;12.20;;;15.70;1.00;;;;;;5096916;28;20910;-60
2023/07/20 01:38:03;;;;;;;13.30;12.10;;;15.70;1.00;;;;;;5097048;28;20448;-61
2023/07/20 01:40:31;;;;;;;13.17;11.83;;;15.70;1.00;;;;;;5097501;28;20559;-60
2023/07/20 01:42:58;;;;;;;13.20;11.90;;;15.80;1.00;;;;;;5097582;28;20466;-60
2023/07/20 01:45:26;;;;;;;12.87;11.50;;;15.80;99.90;;;;;;5096988;28;20462;-61
2023/07/20 01:47:53;;;;;;;12.83;11.53;;;15.70;99.90;;;;;;5097194;28;20457;-60
2023/07/20 01:50:22;;;;;;;11.83;10.60;;;15.70;99.90;;;;;;5097281;28;20920;-61
2023/07/20 01:52:49;;;;;;;13.33;11.37;;;15.70;1.00;;;;;;5097295;28;20461;-61
2023/07/20 01:55:16;;;;;;;13.17;11.80;;;15.70;99.90;;;;;;5097333;28;20456;-61
2023/07/20 01:57:44;;;;;;;13.40;11.37;;;15.80;99.90;;;;;;5097432;28;20492;-61
2023/07/20 02:00:12;;;;;;;14.60;12.30;;;15.80;99.90;;;;;;5097411;28;20460;-61
2023/07/20 02:02:39;;;;;;;12.60;11.40;;;15.80;1.00;;;;;;5097070;28;20464;-61
2023/07/20 02:05:07;;;;;;;18.60;11.40;;;15.70;1.00;;;;;;5096679;28;20743;-60
2023/07/20 02:07:36;;;;;;;12.37;11.27;;;15.70;99.90;;;;;;5096689;28;20551;-60
2023/07/20 02:10:03;;;;;;;12.97;11.53;;;15.70;99.90;;;;;;5097095;28;20562;-61
2023/07/20 02:12:30;;;;;;;12.80;11.40;;;15.70;1.00;;;;;;5097057;28;20468;-61
2023/07/20 02:14:57;;;;;;;13.07;11.73;;;15.60;99.90;;;;;;5097017;28;20555;-61
2023/07/20 02:17:25;;;;;;;12.00;10.80;;;15.60;1.00;;;;;;5096663;28;20952;-60
2023/07/20 02:19:54;;;;;;;11.73;10.53;;;15.70;1.00;;;;;;5096452;28;20467;-60
2023/07/20 02:22:22;;;;;;;12.23;11.03;;;15.70;1.00;;;;;;5096912;28;20464;-60
2023/07/20 02:24:50;;;;;;;12.00;10.80;;;15.70;1.00;;;;;;5096990;28;20484;-61
2023/07/20 02:27:18;;;;;;;11.73;10.63;;;15.70;1.00;;;;;;5096942;28;20460;-60
2023/07/20 02:29:45;;;;;;;14.50;9.90;;;15.80;1.00;;;;;;5096761;28;20466;-61
2023/07/20 02:32:12;;;;;;;11.47;10.33;;;15.70;1.00;;;;;;5096838;28;20461;-61
2023/07/20 02:34:39;;;;;;;11.90;8.70;;;15.70;1.00;;;;;;5097492;28;20488;-61
2023/07/20 02:37:07;;;;;;;15.00;10.50;;;15.70;1.00;;;;;;5100873;28;20515;-60
2023/07/20 02:39:34;;;;;;;10.30;9.00;;;15.70;1.00;;;;;;5100385;28;20465;-60
2023/07/20 02:42:02;;;;;;;10.50;9.07;;;15.80;1.00;;;;;;5100451;28;20565;-60
2023/07/20 02:44:30;;;;;;;11.00;9.87;;;15.90;1.00;;;;;;5100350;28;20464;-60
2023/07/20 02:46:58;;;;;;;10.73;8.60;;;15.80;1.00;;;;;;5100648;28;20448;-60
2023/07/20 02:49:25;;;;;;;12.60;9.37;;;15.90;1.00;;;;;;5099653;28;20467;-60
2023/07/20 02:51:52;;;;;;;12.57;9.70;;;15.90;1.00;;;;;;5099688;28;20461;-59
2023/07/20 02:54:19;;;;;;;12.90;10.03;;;15.80;99.90;;;;;;5100039;28;20748;-59
2023/07/20 02:56:46;;;;;;;12.27;9.30;;;15.80;99.90;;;;;;5100112;28;20481;-60
2023/07/20 02:59:15;;;;;;;13.30;9.53;;;15.80;99.90;;;;;;5100241;28;20464;-60
2023/07/20 03:01:43;;;;;;;9.33;8.43;;;15.70;99.90;;;;;;5099918;28;20873;-60
2023/07/20 03:04:11;;;;;;;11.93;9.47;;;15.80;99.90;;;;;;5099842;28;20518;-60
2023/07/20 03:07:27;;;;;;;11.73;9.20;;;15.70;99.90;;;;;;5099801;28;20517;-60
2023/07/20 03:09:55;;;;;;;10.37;9.27;;;15.70;99.90;;;;;;5100092;28;20813;-60
2023/07/20 03:12:22;;;;;;;11.60;10.13;;;15.70;99.90;;;;;;5099773;28;20765;-59
2023/07/20 03:14:51;;;;;;;11.37;8.30;;;15.80;99.90;;;;;;5099872;28;20465;-60
2023/07/20 03:17:20;;;;;;;12.80;9.50;;;15.80;99.90;;;;;;5099361;28;20488;-59
2023/07/20 03:19:47;;;;;;;10.17;9.07;;;15.80;99.90;;;;;;5099374;28;20506;-60
2023/07/20 03:22:15;;;;;;;10.40;7.70;;;15.80;99.90;;;;;;5099745;28;20513;-57
2023/07/20 03:24:42;;;;;;;12.07;9.63;;;15.80;99.90;;;;;;5100094;28;20468;-59
2023/07/20 03:27:09;;;;;;;10.03;9.03;;;15.80;99.90;;;;;;5099646;28;20738;-60
2023/07/20 03:29:36;;;;;;;9.63;8.63;;;15.80;99.90;;;;;;5099549;28;20791;-60
2023/07/20 03:32:06;;;;;;;11.43;9.53;;;15.90;99.90;;;;;;5099147;28;20464;-59
2023/07/20 03:34:33;;;;;;;9.73;8.23;;;15.80;99.90;;;;;;5099189;28;20484;-59
2023/07/20 03:37:00;;;;;;;11.10;9.20;;;15.90;99.90;;;;;;5099088;28;20960;-59
2023/07/20 03:39:28;;;;;;;12.40;9.60;;;15.80;9.10;;;;;;5098825;28;20438;-60
2023/07/20 03:41:55;;;;;;;10.93;9.43;;;15.70;39.50;;;;;;5099141;28;20841;-60
2023/07/20 03:44:22;;;;;;;12.30;8.27;;;15.70;50.00;;;;;;5099235;28;20765;-60
2023/07/20 03:46:49;;;;;;;9.37;8.47;;;15.70;90.00;;;;;;5098125;28;20971;-59
2023/07/20 03:49:18;;;;;;;11.03;9.10;;;15.70;99.90;;;;;;5099119;28;20467;-60
2023/07/20 03:51:45;;;;;;;10.13;9.13;;;15.70;99.90;;;;;;5098455;28;20460;-60
2023/07/20 03:54:12;;;;;;;12.07;8.90;;;15.80;99.90;;;;;;5098962;28;20647;-59
2023/07/20 03:56:39;;;;;;;12.70;10.27;;;15.80;99.90;;;;;;5098740;28;20583;-59
2023/07/20 03:59:07;;;;;;;11.80;9.77;;;15.80;99.90;;;;;;5098916;28;20460;-60
2023/07/20 04:01:36;;;;;;;14.33;10.77;;;15.70;99.90;;;;;;5098800;28;20484;-60
2023/07/20 04:04:05;;;;;;;11.90;10.70;;;15.80;99.90;;;;;;5098439;28;20464;-60
2023/07/20 04:06:34;;;;;;;13.57;10.20;;;15.80;99.90;;;;;;5098900;28;20460;-60
2023/07/20 04:09:02;;;;;;;14.53;10.40;;;15.80;99.90;;;;;;5098696;28;20758;-60
2023/07/20 04:11:29;;;;;;;16.87;14.17;;;15.80;99.90;;;;;;5098200;28;20470;-60
2023/07/20 04:13:56;;;;;;;16.40;12.40;;;15.70;99.90;;;;;;5098665;28;20463;-61
2023/07/20 04:16:23;;;;;;;14.67;12.93;;;15.80;99.90;;;;;;5098321;28;20464;-61
2023/07/20 04:18:50;;;;;;;13.07;11.57;;;15.80;99.90;;;;;;5098595;28;20599;-60
2023/07/20 04:21:17;;;;;;;13.37;11.83;;;15.70;99.90;;;;;;5098547;28;20524;-61
2023/07/20 04:23:46;;;;;;;14.97;12.60;;;15.80;99.90;;;;;;5098393;28;20465;-61
2023/07/20 04:26:14;;;;;;;17.67;13.97;;;15.60;99.90;;;;;;5098715;28;20563;-61
2023/07/20 04:28:42;;;;;;;18.03;13.37;;;15.60;99.90;;;;;;5098626;28;20446;-60
2023/07/20 04:31:12;;;;;;;14.30;12.80;;;15.70;99.90;;;;;;5098799;28;20762;-61
2023/07/20 04:33:40;;;;;;;16.00;13.60;;;15.70;99.90;;;;;;5097955;28;20464;-61
2023/07/20 04:36:09;;;;;;;14.60;13.20;;;15.80;99.90;;;;;;5098340;28;20537;-60
2023/07/20 04:38:36;;;;;;;15.37;13.40;;;15.80;99.90;;;;;;5097754;28;20539;-61
2023/07/20 04:41:05;;;;;;;21.03;15.87;;;15.90;99.90;;;;;;5098306;28;20467;-61
2023/07/20 04:43:32;;;;;;;16.97;14.73;;;15.80;99.90;;;;;;5098085;28;20461;-60
2023/07/20 04:45:59;;;;;;;18.67;14.97;;;15.80;99.90;;;;;;5097918;28;20500;-60
2023/07/20 04:48:26;;;;;;;19.77;16.47;;;15.80;99.90;;;;;;5081316;28;20774;-60
2023/07/20 04:50:53;;;;;;;20.40;16.50;;;16.00;99.90;;;;;;5078021;28;20450;-61
2023/07/20 04:53:21;;;;;;;20.00;16.80;;;15.90;90.60;;;;;;5077348;28;20457;-60
2023/07/20 04:55:51;;;;;;;19.27;17.27;;;16.00;4.70;;;;;;5077669;28;20911;-60
2023/07/20 04:58:20;;;;;;;19.40;17.30;;;16.00;99.90;;;;;;5077590;28;20531;-60
2023/07/20 05:00:48;;;;;;;20.43;17.83;;;16.00;99.90;;;;;;5077579;28;20569;-62
2023/07/20 05:03:16;;;;;;;24.67;19.00;;;16.00;99.90;;;;;;5077927;28;20494;-60
2023/07/20 05:05:43;;;;;;;21.67;18.47;;;15.90;99.90;;;;;;5077362;28;20523;-60
2023/07/20 05:08:10;;;;;;;22.93;20.40;;;15.90;99.90;;;;;;5077161;28;20840;-60
2023/07/20 05:10:37;;;;;;;22.03;19.13;;;15.80;1.00;;;;;;5076032;28;20465;-60
2023/07/20 05:13:04;;;;;;;23.13;20.70;;;15.80;1.00;;;;;;5076491;28;20492;-60
2023/07/20 05:15:34;;;;;;;24.30;20.40;;;15.90;1.00;;;;;;5076731;28;20517;-59
2023/07/20 05:18:01;;;;;;;27.63;20.73;;;15.80;99.90;;;;;;5077049;28;20493;-60
2023/07/20 05:20:28;;;;;;;23.47;20.57;;;15.70;1.00;;;;;;5077118;28;20461;-59
2023/07/20 05:22:56;;;;;;;23.00;19.53;;;15.80;99.90;;;;;;5077346;28;20758;-60
2023/07/20 05:25:23;;;;;;;26.33;22.10;;;15.80;99.90;;;;;;5076986;28;20544;-60
2023/07/20 05:27:51;;;;;;;25.63;22.80;;;15.80;99.90;;;;;;5076936;28;20468;-59
2023/07/20 05:30:18;;;;;;;29.17;22.67;;;15.80;1.00;;;;;;5085672;28;20461;-60
2023/07/20 05:32:50;;;;;;;24.57;21.97;;;15.90;1.00;;;;;;5097414;28;20460;-60
2023/07/20 05:35:18;;;;;;;26.10;23.23;;;15.90;1.00;;;;;;5097074;28;20964;-60
2023/07/20 05:37:45;;;;;;;27.47;24.77;;;15.80;99.90;;;;;;5097153;28;20528;-60
2023/07/20 05:40:14;;;;;;;29.03;25.27;;;15.90;99.90;;;;;;5096818;28;20498;-60
2023/07/20 05:42:41;;;;;;;30.50;25.03;;;15.90;1.00;;;;;;5097280;28;20770;-65
2023/07/20 05:45:09;;;;;;;30.27;27.27;;;16.00;99.90;;;;;;5097376;28;20473;-64
2023/07/20 05:47:36;;;;;;;31.60;28.30;;;16.10;1.00;;;;;;5096688;28;20873;-65
2023/07/20 05:50:06;;;;;;;30.07;26.87;;;16.20;1.00;;;;;;5097130;28;20901;-64
2023/07/20 05:52:33;;;;;;;27.87;24.87;;;16.30;1.00;;;;;;5097418;28;20502;-63
2023/07/20 05:55:01;;;;;;;27.67;24.97;;;16.30;1.00;;;;;;5096751;28;20467;-64
2023/07/20 05:57:28;;;;;;;30.00;26.87;;;16.30;1.00;;;;;;5096936;28;20488;-64
2023/07/20 05:59:55;;;;;;;27.40;24.80;;;16.20;99.90;;;;;;5096794;28;20435;-64
2023/07/20 06:02:22;;;;;;;27.57;24.67;;;16.30;99.90;;;;;;5096910;28;20467;-64
2023/07/20 06:04:49;;;;;;;30.53;27.60;;;16.50;1.00;;;;;;5097076;28;20500;-64
2023/07/20 06:07:18;;;;;;;27.93;25.20;;;16.70;99.90;;;;;;5097479;28;20634;-64
2023/07/20 06:09:46;;;;;;;27.40;24.87;;;16.70;1.00;;;;;;5098512;28;20824;-64
2023/07/20 06:12:13;;;;;;;26.80;24.20;;;16.80;1.00;;;;;;5101275;28;20495;-64
2023/07/20 06:14:40;;;;;;;24.97;22.57;;;17.00;1.00;;;;;;5101045;28;20518;-64
2023/07/20 06:17:07;;;;;;;23.90;21.37;;;17.10;1.00;;;;;;5100881;28;20460;-65
2023/07/20 06:19:35;;;;;;;21.27;19.10;;;17.10;99.90;;;;;;5100637;28;20435;-64
2023/07/20 06:22:02;;;;;;;16.30;14.80;;;17.20;99.90;;;;;;5101294;28;20460;-64
2023/07/20 06:24:31;;;;;;;16.27;14.80;;;17.20;99.90;;;;;;5100856;28;20472;-64
2023/07/20 06:26:58;;;;;;;15.03;13.50;;;17.00;11.30;;;;;;5101036;28;20460;-64
2023/07/20 06:29:25;;;;;;;14.93;13.53;;;16.70;38.00;;;;;;5100261;28;20456;-64
2023/07/20 06:31:52;;;;;;;16.17;14.77;;;16.50;73.50;;;;;;5100554;28;20910;-64
2023/07/20 06:34:19;;;;;;;16.23;14.63;;;16.50;99.90;;;;;;5100223;28;20487;-63
2023/07/20 06:36:47;;;;;;;15.37;13.77;;;16.60;99.90;;;;;;5100552;28;20467;-64
2023/07/20 06:39:14;;;;;;;16.00;14.30;;;16.80;99.90;;;;;;5100497;28;20538;-64
2023/07/20 06:41:43;;;;;;;17.07;15.37;;;16.90;99.90;;;;;;5100331;28;20515;-63
2023/07/20 06:44:10;;;;;;;13.47;12.27;;;16.90;99.90;;;;;;5100608;28;20510;-63
2023/07/20 06:46:38;;;;;;;14.23;12.80;;;16.90;99.90;;;;;;5100560;28;20897;-63
2023/07/20 06:49:08;;;;;;;12.03;11.03;;;16.90;66.00;;;;;;5100433;28;20456;-63
2023/07/20 06:51:36;;;;;;;14.30;11.50;;;16.60;1.00;;;;;;5098820;28;20471;-63
2023/07/20 06:54:04;;;;;;;12.23;11.03;;;16.60;41.40;;;;;;5098611;28;20855;-63
2023/07/20 06:56:31;;;;;;;13.80;12.60;;;16.70;99.90;;;;;;5098741;28;20509;-63
2023/07/20 06:59:02;;;;;;;17.73;16.17;;;16.60;35.60;;;;;;5098511;28;20462;-64
2023/07/20 07:01:29;;;;;;;19.43;17.80;;;16.50;20.10;;;;;;5098642;28;20736;-63
2023/07/20 07:03:57;;;;;;;20.10;18.20;;;16.40;99.90;;;;;;5098357;28;20563;-63
2023/07/20 07:06:24;;;;;;;21.07;19.30;;;16.40;99.90;;;;;;5098113;28;20551;-63
2023/07/20 07:08:51;;;;;;;20.43;18.50;;;16.60;99.90;;;;;;5099615;28;20568;-63
2023/07/20 07:11:18;;;;;;;19.20;17.57;;;17.10;99.90;;;;;;5100053;28;20431;-62
2023/07/20 07:13:46;;;;;;;16.67;15.17;;;17.60;1.00;;;;;;5099768;28;20818;-63
2023/07/20 07:16:18;;;;;;;13.83;12.63;;;18.20;1.00;;;;;;5098984;28;20464;-63
2023/07/20 07:18:45;;;;;;;14.27;13.10;;;18.10;1.00;;;;;;5099907;28;20492;-63
2023/07/20 07:21:13;;;;;;;13.83;12.67;;;18.10;1.00;;;;;;5099893;28;20471;-63
2023/07/20 07:23:40;;;;;;;15.90;13.13;;;18.10;1.00;;;;;;5097770;28;20475;-62
2023/07/20 07:26:08;;;;;;;13.13;11.93;;;17.80;1.00;;;;;;5097997;28;20845;-63
2023/07/20 07:28:35;;;;;;;12.10;11.10;;;17.70;1.00;;;;;;5098123;28;20503;-63
2023/07/20 07:31:06;;;;;;;11.90;10.93;;;17.90;1.00;;;;;;5097856;28;20461;-62
2023/07/20 07:33:35;;;;;;;13.10;12.00;;;18.10;99.90;;;;;;5097431;28;20711;-62
2023/07/20 07:36:02;;;;;;;11.30;10.40;;;18.50;1.00;;;;;;5097678;28;20522;-62
2023/07/20 07:38:29;;;;;;;14.10;10.80;;;18.60;99.90;;;;;;5099186;28;20524;-63
2023/07/20 07:40:59;;;;;;;10.30;9.50;;;18.90;99.90;;;;;;5099709;28;20464;-65
2023/07/20 07:43:26;;;;;;;10.10;9.20;;;19.20;99.90;;;;;;5099298;28;20938;-63
2023/07/20 07:45:55;;;;;;;9.83;9.03;;;19.00;99.90;;;;;;5099409;28;20467;-64
2023/07/20 07:48:25;;;;;;;8.70;8.00;;;19.30;99.90;;;;;;5098003;28;20537;-64
2023/07/20 07:50:54;;;;;;;8.27;7.57;;;19.30;99.90;;;;;;5099583;28;20896;-65
2023/07/20 07:53:22;;;;;;;6.80;6.30;;;19.80;99.90;;;;;;5099365;28;20449;-63
2023/07/20 07:55:49;;;;;;;6.80;6.30;;;19.50;99.90;;;;;;5098982;28;20877;-65
2023/07/20 07:58:16;;;;;;;6.53;6.03;;;19.00;99.90;;;;;;5098754;28;20495;-64
2023/07/20 08:00:44;;;;;;;6.43;5.93;;;19.10;99.90;;;;;;5099017;28;20960;-63
2023/07/20 08:03:11;;;;;;;6.47;5.87;;;19.40;99.90;;;;;;5098775;28;20461;-63
2023/07/20 08:05:38;;;;;;;6.20;5.70;;;19.80;99.90;;;;;;5096017;28;21002;-64
2023/07/20 08:08:08;;;;;;;5.10;4.67;;;19.80;99.90;;;;;;5098517;28;20460;-63
2023/07/20 08:10:35;;;;;;;5.77;5.37;;;19.50;99.90;;;;;;5099062;28;20513;-63
2023/07/20 08:13:03;;;;;;;6.73;5.90;;;19.00;99.90;;;;;;5099217;28;20554;-64
2023/07/20 08:15:30;;;;;;;5.70;5.23;;;18.80;99.90;;;;;;5098986;28;20740;-64
2023/07/20 08:17:57;;;;;;;6.30;5.80;;;18.40;99.90;;;;;;5098679;28;20957;-65
2023/07/20 08:20:26;;;;;;;6.83;6.33;;;18.20;99.90;;;;;;5098406;28;20460;-64
2023/07/20 08:22:54;;;;;;;7.37;6.80;;;18.30;99.90;;;;;;5098949;28;20521;-64
2023/07/20 08:25:23;;;;;;;7.10;6.53;;;18.50;99.90;;;;;;5098707;28;20956;-64
2023/07/20 08:27:50;;;;;;;7.00;4.80;;;18.70;99.90;;;;;;5098598;28;20551;-64
2023/07/20 08:30:17;;;;;;;4.90;4.50;;;19.50;99.90;;;;;;5098538;28;20471;-64
2023/07/20 08:32:45;;;;;;;5.70;5.30;;;20.10;99.90;;;;;;5098044;28;20464;-65
2023/07/20 08:35:12;;;;;;;5.63;5.23;;;20.30;99.90;;;;;;5098294;28;20519;-66
2023/07/20 08:37:39;;;;;;;5.00;4.60;;;21.20;99.90;;;;;;5098069;28;20464;-65
2023/07/20 08:40:09;;;;;;;5.33;4.93;;;21.40;99.90;;;;;;5098115;28;20539;-65
2023/07/20 08:42:39;;;;;;;4.40;4.10;;;21.50;99.90;;;;;;5098655;28;20460;-64
2023/07/20 08:45:09;;;;;;;5.17;4.77;;;21.60;99.90;;;;;;5098443;28;20468;-64
2023/07/20 08:47:37;;;;;;;4.17;3.87;;;21.80;99.90;;;;;;5097051;28;20902;-65
2023/07/20 08:50:08;;;;;;;3.70;3.40;;;22.60;99.90;;;;;;5098045;28;20509;-65
2023/07/20 08:52:36;;;;;;;4.00;3.60;;;22.90;99.90;;;;;;5098131;28;20496;-65
2023/07/20 08:55:04;;;;;;;3.43;3.13;;;23.10;99.90;;;;;;5097313;28;20846;-66
2023/07/20 08:57:34;;;;;;;4.63;4.30;;;23.50;99.90;;;;;;5077373;28;20468;-65
2023/07/20 09:00:06;;;;;;;4.80;4.40;;;22.20;99.90;;;;;;5077289;28;20508;-64
2023/07/20 09:02:39;;;;;;;5.13;4.77;;;21.80;99.90;;;;;;5077583;28;20536;-64
2023/07/20 09:05:08;;;;;;;5.50;5.10;;;21.70;99.90;;;;;;5077154;28;20479;-65
2023/07/20 09:07:37;;;;;;;6.97;6.37;;;21.80;99.90;;;;;;5077270;28;20805;-65
2023/07/20 09:10:06;;;;;;;5.33;5.00;;;21.40;99.90;;;;;;5077416;28;20881;-66
2023/07/20 09:12:33;;;;;;;6.70;6.20;;;21.40;99.90;;;;;;5077427;28;20910;-67
2023/07/20 09:15:01;;;;;;;5.30;4.90;;;21.30;99.90;;;;;;5077236;28;20461;-65
2023/07/20 09:17:29;;;;;;;6.90;6.40;;;21.70;99.90;;;;;;5077124;28;20466;-67
2023/07/20 09:19:57;;;;;;;5.10;4.80;;;21.20;99.90;;;;;;5077004;28;20542;-67
2023/07/20 09:22:30;;;;;;;4.90;4.50;;;21.20;99.90;;;;;;5077179;28;20542;-64
2023/07/20 09:24:58;;;;;;;6.00;5.60;;;21.00;99.90;;;;;;5077698;28;20453;-66
2023/07/20 09:27:37;;;;;;;5.47;5.07;;;20.80;99.90;;;;;;5077047;28;20840;-65
2023/07/20 09:30:07;;;;;;;5.47;5.07;;;21.40;99.90;;;;;;5076974;28;20464;-66
2023/07/20 09:32:40;;;;;;;4.37;4.07;;;21.70;99.90;;;;;;5077431;28;20523;-65
2023/07/20 09:35:13;;;;;;;4.13;3.83;;;21.90;99.90;;;;;;5076870;28;20488;-65
2023/07/20 09:37:40;;;;;;;5.10;4.70;;;22.20;99.90;;;;;;5077242;28;20469;-65
2023/07/20 09:40:09;;;;;;;5.37;4.97;;;23.60;99.90;;;;;;5077384;28;20583;-66
2023/07/20 09:42:38;;;;;;;5.80;5.30;;;24.40;99.90;;;;;;5077540;28;20548;-67
2023/07/20 09:45:09;;;;;;;6.30;5.80;;;24.20;99.90;;;;;;5076496;28;20530;-65
2023/07/20 09:47:39;;;;;;;6.20;5.70;;;23.50;99.90;;;;;;5076984;28;20866;-67
2023/07/20 09:50:10;;;;;;;4.73;4.43;;;23.20;99.90;;;;;;5076445;28;20559;-65
2023/07/20 09:52:40;;;;;;;4.50;4.20;;;22.30;99.90;;;;;;5076999;28;20512;-65
2023/07/20 09:55:09;;;;;;;5.57;5.17;;;21.60;99.90;;;;;;5077497;28;20457;-65
2023/07/20 09:57:36;;;;;;;4.93;4.53;;;21.00;99.90;;;;;;5076845;28;20461;-65
2023/07/20 10:00:11;;;;;;;3.83;3.63;;;21.00;99.90;;;;;;5077006;28;20497;-64
2023/07/20 10:02:44;;;;;;;4.40;4.10;;;21.40;99.90;;;;;;5076833;28;20460;-64
2023/07/20 10:05:14;;;;;;;4.97;3.17;;;21.20;99.90;;;;;;5076761;28;20461;-65
2023/07/20 10:07:47;;;;;;;5.43;2.90;;;21.50;99.90;;;;;;5076754;28;20458;-64
2023/07/20 10:10:16;;;;;;;2.83;2.63;;;21.20;99.90;;;;;;5077018;28;20508;-64
2023/07/20 10:12:45;;;;;;;2.57;2.37;;;21.80;99.90;;;;;;5077003;28;20464;-65
2023/07/20 10:15:21;;;;;;;3.10;2.90;;;22.30;99.90;;;;;;5076898;28;20511;-65
2023/07/20 10:17:58;;;;;;;3.30;3.10;;;21.70;99.90;;;;;;5075585;28;20530;-64
2023/07/20 10:20:27;;;;;;;3.30;3.10;;;22.10;99.90;;;;;;5075887;28;20588;-65
2023/07/20 10:22:56;;;;;;;2.80;2.60;;;21.70;99.90;;;;;;5076041;28;20499;-65
2023/07/20 10:25:25;;;;;;;3.17;2.97;;;21.20;99.90;;;;;;5076241;28;20461;-65
2023/07/20 10:27:52;;;;;;;3.50;3.20;;;21.50;99.90;;;;;;5076846;28;20955;-66
2023/07/20 10:30:20;;;;;;;2.87;2.67;;;21.70;99.90;;;;;;5076738;28;20823;-66
2023/07/20 10:32:50;;;;;;;3.20;2.73;;;21.70;99.90;;;;;;5075837;28;20462;-65
2023/07/20 10:35:19;;;;;;;3.03;2.83;;;22.40;99.90;;;;;;5076081;28;20587;-66
2023/07/20 10:37:49;;;;;;;3.27;3.07;;;22.50;99.90;;;;;;5076460;28;20518;-65
2023/07/20 10:40:27;;;;;;;4.00;3.70;;;23.10;99.90;;;;;;5076742;28;20493;-66
2023/07/20 10:43:01;;;;;;;4.33;4.03;;;23.30;99.90;;;;;;5076810;28;20564;-65
2023/07/20 10:45:53;;;;;;;4.43;4.10;;;23.20;99.90;;;;;;5076282;28;20471;-66
2023/07/20 10:48:23;;;;;;;3.90;3.60;;;23.70;99.90;;;;;;5061730;28;20563;-66
2023/07/20 10:51:20;;;;;;;4.17;3.87;;;24.40;99.90;;;;;;5076769;28;20459;-65
2023/07/20 10:53:49;;;;;;;3.80;3.50;;;23.50;99.90;;;;;;5076406;28;20886;-65
2023/07/20 10:56:21;;;;;;;3.63;3.43;;;23.40;99.90;;;;;;5078555;28;20519;-65
2023/07/20 10:58:49;;;;;;;3.57;3.37;;;22.00;99.90;;;;;;5079905;28;20559;-65
2023/07/20 11:01:18;;;;;;;3.43;3.17;;;21.30;99.90;;;;;;5080240;28;20550;-65
2023/07/20 11:03:51;;;;;;;3.93;3.63;;;21.10;99.90;;;;;;5079807;28;20514;-65
2023/07/20 11:06:34;;;;;;;3.23;3.03;;;21.00;99.90;;;;;;5080012;28;20461;-65
2023/07/20 11:09:07;;;;;;;3.30;3.00;;;22.00;99.90;;;;;;5079805;28;20493;-65
2023/07/20 11:11:36;;;;;;;3.67;3.37;;;22.40;99.90;;;;;;5079778;28;20735;-66
2023/07/20 11:14:05;;;;;;;2.97;2.70;;;23.00;99.90;;;;;;5079679;28;20471;-65
2023/07/20 11:16:40;;;;;;;3.80;3.20;;;23.20;99.90;;;;;;5079575;28;20480;-65
2023/07/20 11:19:18;;;;;;;3.00;2.80;;;23.70;99.90;;;;;;5079849;28;20510;-65
2023/07/20 11:21:47;;;;;;;2.87;2.50;;;24.20;99.90;;;;;;5079504;28;20467;-66
2023/07/20 11:24:14;;;;;;;3.03;2.77;;;24.50;99.90;;;;;;5079693;28;20476;-66
2023/07/20 11:26:43;;;;;;;2.63;2.37;;;25.60;99.90;;;;;;5079779;28;20461;-66
2023/07/20 11:29:11;;;;;;;2.70;2.50;;;26.00;99.90;;;;;;5079825;28;20802;-65
2023/07/20 11:31:39;;;;;;;2.80;2.60;;;24.70;99.90;;;;;;5079085;28;20497;-66
2023/07/20 11:34:06;;;;;;;3.50;3.00;;;24.80;99.90;;;;;;5079164;28;20555;-66
2023/07/20 11:36:35;;;;;;;3.37;3.17;;;24.20;99.90;;;;;;5079401;28;20471;-65
2023/07/20 11:39:04;;;;;;;3.80;3.50;;;23.60;99.90;;;;;;5079521;28;20511;-65
2023/07/20 11:41:33;;;;;;;3.10;2.80;;;22.40;99.90;;;;;;5079632;28;20458;-64
2023/07/20 11:44:00;;;;;;;3.80;3.50;;;21.70;99.90;;;;;;5085036;28;20465;-65
2023/07/20 11:46:29;;;;;;;4.43;3.90;;;21.40;99.90;;;;;;5087432;28;20487;-65
2023/07/20 11:49:00;;;;;;;3.60;3.30;;;21.80;99.90;;;;;;5081778;28;20457;-65
2023/07/20 11:51:29;;;;;;;2.80;2.60;;;23.00;99.90;;;;;;5079738;28;20457;-66
2023/07/20 11:53:58;;;;;;;3.40;2.83;;;24.00;99.90;;;;;;5087410;28;20524;-65
2023/07/20 11:56:26;;;;;;;3.90;3.60;;;23.50;99.90;;;;;;5088341;28;20461;-64
2023/07/20 11:58:59;;;;;;;3.70;3.40;;;22.90;99.90;;;;;;5088907;28;20461;-65
2023/07/20 12:01:28;;;;;;;3.27;3.07;;;22.50;99.90;;;;;;5084235;28;20539;-65
2023/07/20 12:03:57;;;;;;;3.37;3.10;;;22.60;99.90;;;;;;5083064;28;20468;-65
2023/07/20 12:06:26;;;;;;;3.70;3.40;;;22.80;99.90;;;;;;5084321;28;20453;-64
2023/07/20 12:08:58;;;;;;;4.37;3.93;;;23.00;99.90;;;;;;5084616;28;20461;-66
2023/07/20 12:11:33;;;;;;;3.33;3.03;;;23.50;99.90;;;;;;5081239;28;20532;-65
2023/07/20 12:14:00;;;;;;;3.43;3.13;;;25.00;99.90;;;;;;5080600;28;20464;-65
2023/07/20 12:16:29;;;;;;;3.50;3.20;;;25.60;99.90;;;;;;5088885;28;20491;-65
2023/07/20 12:19:02;;;;;;;5.17;3.40;;;24.80;99.90;;;;;;5090392;28;20767;-65
2023/07/20 12:21:29;;;;;;;3.50;3.30;;;23.50;99.90;;;;;;5089867;28;20424;-65
2023/07/20 12:23:59;;;;;;;4.57;4.20;;;22.90;99.90;;;;;;5088693;28;20461;-65
2023/07/20 12:26:30;;;;;;;4.20;3.90;;;22.90;99.90;;;;;;5088796;28;20544;-65
2023/07/20 12:28:57;;;;;;;4.73;4.13;;;23.20;99.90;;;;;;5090359;28;20454;-64
2023/07/20 12:31:25;;;;;;;4.30;4.00;;;23.30;99.90;;;;;;5088532;28;20890;-66
2023/07/20 12:33:53;;;;;;;4.47;4.17;;;23.40;99.90;;;;;;5087781;28;20453;-65
2023/07/20 12:36:20;;;;;;;3.63;3.33;;;23.50;99.90;;;;;;5088102;28;20544;-64
2023/07/20 12:38:48;;;;;;;3.60;3.30;;;23.40;99.90;;;;;;5085741;28;20461;-65
2023/07/20 12:41:17;;;;;;;3.20;3.00;;;23.40;99.90;;;;;;5085551;28;20489;-67
2023/07/20 12:43:45;;;;;;;3.97;3.67;;;23.50;99.90;;;;;;5086297;28;20502;-65
2023/07/20 12:46:14;;;;;;;3.20;2.90;;;24.00;99.90;;;;;;5088495;28;20432;-64